8T8 weather

San Geronimo Airpark
San Antonio, Texas, United States

Public forecast

Using degrees Fahrenheit for public forecast. Weather courtesy of forecast.io.

METAR (pilot weather report)

Closest report is Castroville Municipal Airport, 10.5 nm (19.4 km) SSW. Retrieved 2019/07/16 07:35 UTC (5 minutes ago):

KCVB 160735Z AUTO 12004KT 10SM CLR 26/22 A2997 RMK AO2 T02620215

TAF (pilot weather forecast)

Closest forecast is Lackland Air Force Base, 13.7 nm (25.3 km) ESE. Retrieved 2019/07/16 02:26 UTC (5 hours ago):

TAF KSKF 160200Z 1602/1708 14009KT 9999 FEW050 SCT250 QNH2984INS BECMG 1609/1610 14006KT 9999 BKN012 QNH2992INS BECMG 1613/1614 16010KT 9999 FEW050 QNH2987INS BECMG 1700/1701 14014G20KT 9999 SCT250 QNH2989INS TX37/1621Z TN25/1612Z